This is the latest recevied weather packets stored in our database for station/object KG5WBN. If no packets are shown the sender has not sent any weather packets the latest 10 day(s).
| Time | Temp. | Humidity | Pressure | Rain* | Wind** | Luminosity | Snow |
|---|---|---|---|---|---|---|---|
| 1777598056 | 23.89° C | 99% | 1010.8 hPa | 0 mm | - | 0 W/m² | - |
| 1777597755 | 23.89° C | 99% | 1010.5 hPa | 0 mm | - | 0 W/m² | - |
| 1777597451 | 23.89° C | 99% | 1010.8 hPa | 0 mm | - | 0 W/m² | - |
| 1777597146 | 23.89° C | 99% | 1010.8 hPa | 0 mm | - | 0 W/m² | - |
| 1777596843 | 23.89° C | 99% | 1010.8 hPa | 0 mm | - | 0 W/m² | - |
| 1777596539 | 23.89° C | 99% | 1010.8 hPa | 0 mm | - | 0 W/m² | - |
| 1777596236 | 23.89° C | 99% | 1010.8 hPa | 0 mm | - | 0 W/m² | - |
| 1777595933 | 23.33° C | 99% | 1011.2 hPa | 0 mm | - | 0 W/m² | - |
| 1777595633 | 23.33° C | 99% | 1010.8 hPa | 0 mm | - | 0 W/m² | - |
| 1777595329 | 23.33° C | 99% | 1010.2 hPa | 0 mm | - | 3 W/m² | - |
| 1777595025 | 23.33° C | 99% | 1010.5 hPa | 1.27 mm | - | 5 W/m² | - |
| 1777594722 | 23.89° C | 99% | 1010.5 hPa | 0 mm | - | 9 W/m² | - |
| 1777594419 | 23.33° C | 99% | 1010.8 hPa | 0 mm | - | 11 W/m² | - |
| 1777594114 | 23.89° C | 99% | 1010.8 hPa | 0 mm | - | 14 W/m² | - |
| 1777593810 | 23.33° C | 99% | 1010.8 hPa | 1.78 mm | - | 18 W/m² | - |
| 1777593507 | 23.33° C | 99% | 1011.2 hPa | 4.32 mm | - | 8 W/m² | - |
| 1777593201 | 23.89° C | 99% | 1011.2 hPa | 4.83 mm | - | 6 W/m² | - |
| 1777592900 | 23.89° C | 99% | 1011.5 hPa | 3.05 mm | - | 4 W/m² | - |
| 1777592596 | 23.89° C | 99% | 1011.5 hPa | 13.72 mm | - | 2 W/m² | - |
| 1777592293 | 23.33° C | 99% | 1010.5 hPa | 16.26 mm | - | 8 W/m² | - |
| 1777591988 | 23.33° C | 99% | 1010.5 hPa | 10.92 mm | - | 6 W/m² | - |
| 1777591684 | 23.33° C | 99% | 1010.5 hPa | 7.87 mm | - | 2 W/m² | - |
| 1777591380 | 23.33° C | 99% | 1009.8 hPa | 14.99 mm | - | 4 W/m² | - |
| 1777591076 | 23.33° C | 98% | 1009.5 hPa | 15.49 mm | - | 5 W/m² | - |
| 1777590772 | 23.89° C | 97% | 1009.1 hPa | 4.83 mm | - | 7 W/m² | - |
* Rain latest hour (hover to see other rain measurements)
** Current wind speed in m/s (hover to see current wind gust speed)